LDPL Airport Information

Runway Information
Runway 09 Length 9678 ft width 148 ft
Elevation 169 ft Threshold 0 ft Heading 88
Runway 27 Length 9678 ft Width 148 ft
Elevation 274 ft Threshold 0 ft Heading 268
Airport Frequencies
Type APP Name APP Frequency 118.4 MHZ
Type TWR Name TWR Frequency 120 MHZ
Airport Navaids
Type NDB Name Cres Frequency 433 KHZ
Type NDB Name Kavran Frequency 265 KHZ
Type NDB Name Pula Frequency 352 KHZ
Type VOR-DME Name Pula Frequency 111250 KHZ
Airport Weather Information & NOTAM
ADDS - METARS form results

(0038 UTC 23 March 2019)
Data provider http://aviationweather.gov/metar/data/
 
METAR text: LDPL 230030Z VRB01KT CAVOK 08/M02 Q1025
Conditions at: LDPL (PULA , HR) observed 0030 UTC 23 March 2019
Temperature: 8.0°C (46°F)
Dewpoint: -2.0°C (28°F) [RH = 49%]
Pressure (altimeter): 30.27 inches Hg (1025.0 mb)
Winds: variable direction winds at 1 MPH (1 knots; 0.5 m/s)
Visibility: 6 or more miles (10+ km)
Ceiling: ceiling and visibility are OK
Clouds: unknown
Weather: no significant weather observed at this time

METAR text: LDPL 230000Z VRB02KT CAVOK 07/M02 Q1025
Conditions at: LDPL (PULA , HR) observed 0000 UTC 23 March 2019
Temperature: 7.0°C (45°F)
Dewpoint: -2.0°C (28°F) [RH = 53%]
Pressure (altimeter): 30.27 inches Hg (1025.0 mb)
Winds: variable direction winds at 2 MPH (2 knots; 1.0 m/s)
Visibility: 6 or more miles (10+ km)
Ceiling: ceiling and visibility are OK
Clouds: unknown
Weather: no significant weather observed at this time

Forecast for: LDPL (PULA , HR)
Text: TAF LDPL 222325Z 2300/2400 05007KT CAVOK TX20/2312Z TN08/2321Z
Forecast period: 0000 to 1000 UTC 23 March 2019
Forecast type: FROM: standard forecast or significant change
Winds: from the NE (50 degrees) at 8 MPH (7 knots; 3.6 m/s)
Visibility: 6 or more miles 10+ km)
Ceiling: unknown
Clouds: missing
Weather: no significant weather forecast for this period
Text: BECMG 2310/2312 27010KT
Forecast period: 1000 to 1600 UTC 23 March 2019
Forecast type: BECOMING: Conditions expected to become as follows by 1200 UTC 23 March 2019
Winds: from the W (270 degrees) at 12 MPH (10 knots; 5.1 m/s)
Visibility: 6 or more miles 10+ km)
Ceiling: unknown
Clouds: missing
Weather: no significant weather forecast for this period
Text: BECMG 2316/2318 VRB02KT
Forecast period: 1600 UTC 23 March 2019 to 0000 UTC 24 March 2019
Forecast type: BECOMING: Conditions expected to become as follows by 1800 UTC 23 March 2019
Winds: variable direction winds at 2 MPH (2 knots; 1.0 m/s)
Visibility: 6 or more miles 10+ km)
Ceiling: unknown
Clouds: missing
Weather: no significant weather forecast for this period